Overview Statistics Trail Chart Weather Telemetry Raw packets
 

This is the latest recevied weather packets stored in our database for station/object K4IR. If no packets are shown the sender has not sent any weather packets the latest 10 day(s).

<< 27 28 29 30 31 32 33 >>
Time Temp. Humidity Pressure Rain* Wind** Luminosity Snow
1788219688 25.56° C 93% 1018.4 hPa 0 mm - 3 W/m² -
1788219085 26.11° C 93% 1018.2 hPa 0 mm - 8 W/m² -
1788218482 26.67° C 92% 1018.6 hPa 0 mm - 15 W/m² -
1788217880 27.22° C 90% 1018.4 hPa 0 mm - 24 W/m² -
1788217275 27.22° C 88% 1018.6 hPa 0 mm - 31 W/m² -
1788216670 27.78° C 87% 1018.4 hPa 0 mm - 37 W/m² -
1788216067 27.78° C 87% 1018.6 hPa 0 mm - 44 W/m² -
1788215464 27.78° C 89% 1018.5 hPa 0 mm - 46 W/m² -
1788214860 28.33° C 85% 1018.5 hPa 0 mm - 72 W/m² -
1788214256 28.33° C 85% 1018.4 hPa 0 mm - 78 W/m² -
1788213652 28.33° C 84% 1018.3 hPa 0 mm - 93 W/m² -
1788213049 27.78° C 85% 1018.3 hPa 0 mm - 189 W/m² -
1788212448 27.22° C 86% 1018.3 hPa 0 mm - 175 W/m² -
1788211845 27.22° C 89% 1018.4 hPa 0 mm - 196 W/m² -
1788211243 27.22° C 87% 1018.3 hPa 0 mm - 195 W/m² -
1788210642 26.67° C 92% 1018.2 hPa 0 mm - 372 W/m² -
1788210039 26.11° C 95% 1018.3 hPa 0 mm - 429 W/m² -
1788209435 25.56° C 96% 1018.1 hPa 0 mm - 231 W/m² -
1788208834 25.56° C 97% 1018.5 hPa 0 mm - 202 W/m² -
1788208233 25° C 97% 1018.3 hPa 0 mm - 158 W/m² -
1788207633 25° C 97% 1018.5 hPa 0 mm - 146 W/m² -
1788207027 25° C 96% 1018.9 hPa 0 mm - 154 W/m² -
1788206423 24.44° C 97% 1018.9 hPa 0 mm - 158 W/m² -
1788205819 23.89° C 96% 1018.7 hPa 0 mm - 129 W/m² -
1788205214 23.33° C 96% 1018.9 hPa 7.11 mm - 95 W/m² -

* Rain latest hour (hover to see other rain measurements)
** Current wind speed in m/s (hover to see current wind gust speed)